createdAt,value
2016-08-26T00:00:37.182Z,0
2016-08-26T00:01:35.878Z,0
2016-08-26T00:02:35.226Z,0
2016-08-26T00:03:35.231Z,0
2016-08-26T00:04:35.902Z,0
2016-08-26T00:05:35.252Z,0
2016-08-26T00:06:36.624Z,0
2016-08-26T00:07:35.921Z,0
2016-08-26T00:08:35.222Z,0
2016-08-26T00:09:35.286Z,0
2016-08-26T00:10:36.649Z,0
2016-08-26T00:11:36.502Z,0
2016-08-26T00:12:35.251Z,0
2016-08-26T00:13:35.963Z,0
2016-08-26T00:14:35.269Z,0
2016-08-26T00:15:34.571Z,0
2016-08-26T00:16:36.007Z,0
2016-08-26T00:17:35.292Z,0
2016-08-26T00:18:35.300Z,0
2016-08-26T00:19:35.330Z,0
2016-08-26T00:20:36.025Z,0
2016-08-26T00:21:36.035Z,0
2016-08-26T00:22:38.983Z,0
2016-08-26T00:23:35.346Z,0
2016-08-26T00:24:35.363Z,0
2016-08-26T00:25:36.074Z,0
2016-08-26T00:26:35.374Z,0
2016-08-26T00:27:36.092Z,0
2016-08-26T00:28:36.801Z,0
2016-08-26T00:29:36.158Z,0
2016-08-26T00:30:36.830Z,0
2016-08-26T00:31:36.828Z,0
2016-08-26T00:32:35.423Z,0
2016-08-26T00:33:36.142Z,0
2016-08-26T00:34:35.496Z,0
2016-08-26T00:35:37.512Z,0
2016-08-26T00:36:36.174Z,0
2016-08-26T00:37:35.465Z,0
2016-08-26T00:38:36.179Z,0
2016-08-26T00:39:36.191Z,0
2016-08-26T00:40:36.908Z,0
2016-08-26T00:41:36.209Z,0
2016-08-26T00:42:36.930Z,0
2016-08-26T00:43:36.927Z,0
2016-08-26T00:44:35.525Z,0
2016-08-26T00:45:34.827Z,0
2016-08-26T00:46:36.865Z,0
2016-08-26T00:47:34.839Z,0
2016-08-26T00:48:35.552Z,0
2016-08-26T00:49:36.275Z,0
2016-08-26T00:50:36.282Z,0
2016-08-26T00:51:35.580Z,0
2016-08-26T00:52:35.592Z,0
2016-08-26T00:53:35.596Z,0
2016-08-26T00:54:35.608Z,0
2016-08-26T00:55:35.814Z,0
2016-08-26T00:56:36.328Z,0
2016-08-26T00:57:37.123Z,0
2016-08-26T00:58:37.054Z,0
2016-08-26T00:59:36.363Z,0
2016-08-26T01:00:35.657Z,0
2016-08-26T01:01:34.954Z,0
2016-08-26T01:02:36.382Z,0
2016-08-26T01:03:36.437Z,0
2016-08-26T01:04:37.107Z,0
2016-08-26T01:05:35.698Z,0
2016-08-26T01:06:37.308Z,0
2016-08-26T01:07:35.715Z,0
2016-08-26T01:08:36.573Z,0
2016-08-26T01:09:36.439Z,0
2016-08-26T01:10:36.446Z,0
2016-08-26T01:11:35.796Z,0
2016-08-26T01:12:35.811Z,0
2016-08-26T01:13:37.179Z,0
2016-08-26T01:14:37.196Z,0
2016-08-26T01:15:35.074Z,0
2016-08-26T01:16:35.081Z,0
2016-08-26T01:17:35.802Z,0
2016-08-26T01:18:36.516Z,0
2016-08-26T01:19:37.040Z,0
2016-08-26T01:20:35.828Z,0
2016-08-26T01:21:35.829Z,0
2016-08-26T01:22:36.545Z,0
2016-08-26T01:23:35.845Z,0
2016-08-26T01:24:37.268Z,0
2016-08-26T01:25:35.865Z,0
2016-08-26T01:26:35.165Z,0
2016-08-26T01:27:37.296Z,0
2016-08-26T01:28:36.601Z,0
2016-08-26T01:29:35.897Z,0
2016-08-26T01:30:37.368Z,0
2016-08-26T01:31:36.623Z,0
2016-08-26T01:32:37.853Z,0
2016-08-26T01:33:36.657Z,0
2016-08-26T01:34:37.359Z,0
2016-08-26T01:35:35.946Z,0
2016-08-26T01:36:36.710Z,0
2016-08-26T01:37:35.965Z,0
2016-08-26T01:38:35.971Z,0
2016-08-26T01:39:36.689Z,0
2016-08-26T01:40:37.402Z,0
2016-08-26T01:41:36.744Z,0
2016-08-26T01:42:36.715Z,0
2016-08-26T01:43:38.089Z,0
2016-08-26T01:44:36.730Z,0
2016-08-26T01:45:36.739Z,0
2016-08-26T01:46:36.037Z,0
2016-08-26T01:47:36.757Z,0
2016-08-26T01:48:37.468Z,0
2016-08-26T01:49:36.769Z,0
2016-08-26T01:50:36.072Z,0
2016-08-26T01:51:36.076Z,0
2016-08-26T01:52:36.848Z,0
2016-08-26T01:53:37.513Z,0
2016-08-26T01:54:36.158Z,0
2016-08-26T01:55:37.528Z,0
2016-08-26T01:56:36.570Z,0
2016-08-26T01:57:36.131Z,0
2016-08-26T01:58:36.845Z,0
2016-08-26T01:59:36.861Z,0
2016-08-26T02:00:37.568Z,0
2016-08-26T02:01:35.454Z,0
2016-08-26T02:02:36.190Z,0
2016-08-26T02:03:36.436Z,0
2016-08-26T02:04:36.943Z,0
2016-08-26T02:05:37.868Z,0
2016-08-26T02:06:36.958Z,0
2016-08-26T02:07:36.931Z,0
2016-08-26T02:08:36.927Z,0
2016-08-26T02:09:36.935Z,0
2016-08-26T02:10:36.995Z,0
2016-08-26T02:11:36.243Z,0
2016-08-26T02:12:37.715Z,0
2016-08-26T02:13:36.261Z,0
2016-08-26T02:14:36.974Z,0
2016-08-26T02:15:37.030Z,0
2016-08-26T02:16:37.382Z,0
2016-08-26T02:17:36.295Z,0
2016-08-26T02:18:36.552Z,0
2016-08-26T02:19:37.015Z,0
2016-08-26T02:20:37.731Z,0
2016-08-26T02:21:37.188Z,0
2016-08-26T02:22:36.335Z,0
2016-08-26T02:23:36.345Z,0
2016-08-26T02:24:35.641Z,0
2016-08-26T02:25:37.774Z,0
2016-08-26T02:26:37.070Z,0
2016-08-26T02:27:37.580Z,0
2016-08-26T02:28:36.383Z,0
2016-08-26T02:29:37.109Z,0
2016-08-26T02:30:37.813Z,0
2016-08-26T02:31:36.406Z,0
2016-08-26T02:32:35.710Z,0
2016-08-26T02:33:37.134Z,0
2016-08-26T02:34:37.141Z,0
2016-08-26T02:35:37.853Z,0
2016-08-26T02:36:37.151Z,0
2016-08-26T02:37:35.748Z,0
2016-08-26T02:38:37.821Z,0
2016-08-26T02:39:36.480Z,0
2016-08-26T02:40:36.328Z,0
2016-08-26T02:41:36.536Z,0
2016-08-26T02:42:37.921Z,0
2016-08-26T02:43:36.506Z,0
2016-08-26T02:44:37.219Z,0
2016-08-26T02:45:36.524Z,0
2016-08-26T02:46:36.531Z,0
2016-08-26T02:47:37.256Z,0
2016-08-26T02:48:36.551Z,0
2016-08-26T02:49:38.323Z,0
2016-08-26T02:50:37.978Z,0
2016-08-26T02:51:39.013Z,0
2016-08-26T02:52:37.998Z,0
2016-08-26T02:53:37.448Z,0
2016-08-26T02:54:36.599Z,0
2016-08-26T02:55:37.308Z,0
2016-08-26T02:56:38.080Z,0
2016-08-26T02:57:37.334Z,0
2016-08-26T02:58:36.633Z,0
2016-08-26T02:59:38.053Z,0
2016-08-26T03:00:37.901Z,0
2016-08-26T03:01:37.355Z,0
2016-08-26T03:02:36.674Z,0
2016-08-26T03:03:38.085Z,0
2016-08-26T03:04:37.583Z,0
2016-08-26T03:05:36.684Z,0
2016-08-26T03:06:35.981Z,0
2016-08-26T03:07:36.045Z,0
2016-08-26T03:08:36.757Z,0
2016-08-26T03:09:37.422Z,0
2016-08-26T03:10:36.725Z,0
2016-08-26T03:11:36.733Z,0
2016-08-26T03:12:37.701Z,0
2016-08-26T03:13:39.240Z,0
2016-08-26T03:14:38.168Z,0
2016-08-26T03:15:37.066Z,0
2016-08-26T03:16:36.823Z,0
2016-08-26T03:17:36.781Z,0
2016-08-26T03:18:37.492Z,0
2016-08-26T03:19:37.509Z,0
2016-08-26T03:20:36.804Z,0
2016-08-26T03:21:38.225Z,0
2016-08-26T03:22:37.530Z,0
2016-08-26T03:23:37.538Z,0
2016-08-26T03:24:37.942Z,0
2016-08-26T03:25:37.548Z,0
2016-08-26T03:26:39.204Z,0
2016-08-26T03:27:36.859Z,0
2016-08-26T03:28:38.481Z,0
2016-08-26T03:29:37.581Z,0
2016-08-26T03:30:36.879Z,0
2016-08-26T03:31:38.304Z,0
2016-08-26T03:32:37.608Z,0
2016-08-26T03:33:36.913Z,0
2016-08-26T03:34:37.621Z,0
2016-08-26T03:35:38.132Z,0
2016-08-26T03:36:36.226Z,0
2016-08-26T03:37:36.941Z,0
2016-08-26T03:38:36.238Z,0
2016-08-26T03:39:38.721Z,0
2016-08-26T03:40:37.672Z,0
2016-08-26T03:41:37.674Z,0
2016-08-26T03:42:36.979Z,0
2016-08-26T03:43:36.986Z,0
2016-08-26T03:44:36.996Z,0
2016-08-26T03:45:37.005Z,0
2016-08-26T03:46:38.663Z,0
2016-08-26T03:47:37.018Z,0
2016-08-26T03:48:37.732Z,0
2016-08-26T03:49:38.460Z,0
2016-08-26T03:50:38.369Z,0
2016-08-26T03:51:37.754Z,0
2016-08-26T03:52:38.471Z,0
2016-08-26T03:53:37.065Z,0
2016-08-26T03:54:37.079Z,0
2016-08-26T03:55:38.494Z,0
2016-08-26T03:56:38.510Z,0
2016-08-26T03:57:37.805Z,0
2016-08-26T03:58:37.813Z,0
2016-08-26T03:59:39.276Z,0
2016-08-26T04:00:37.122Z,0
2016-08-26T04:01:39.150Z,0
2016-08-26T04:02:37.852Z,0
2016-08-26T04:03:38.563Z,0
2016-08-26T04:04:36.444Z,0
2016-08-26T04:05:36.468Z,4
2016-08-26T04:06:37.878Z,0
2016-08-26T04:07:37.886Z,0
2016-08-26T04:08:37.190Z,4
2016-08-26T04:09:37.198Z,4
2016-08-26T04:10:37.209Z,0
2016-08-26T04:11:37.212Z,4
2016-08-26T04:12:38.226Z,4
2016-08-26T04:13:37.982Z,4
2016-08-26T04:14:37.286Z,8
2016-08-26T04:15:38.655Z,4
2016-08-26T04:16:37.960Z,4
2016-08-26T04:17:37.257Z,8
2016-08-26T04:18:37.318Z,8
2016-08-26T04:19:37.977Z,8
2016-08-26T04:20:36.577Z,8
2016-08-26T04:21:37.291Z,16
2016-08-26T04:22:38.016Z,16
2016-08-26T04:23:37.758Z,16
2016-08-26T04:24:38.022Z,16
2016-08-26T04:25:37.324Z,20
2016-08-26T04:26:38.745Z,20
2016-08-26T04:27:38.041Z,24
2016-08-26T04:28:38.056Z,28
2016-08-26T04:29:38.065Z,28
2016-08-26T04:30:38.080Z,32
2016-08-26T04:31:38.088Z,36
2016-08-26T04:32:38.089Z,40
2016-08-26T04:33:38.812Z,40
2016-08-26T04:34:37.899Z,44
2016-08-26T04:35:36.700Z,52
2016-08-26T04:36:39.223Z,56
2016-08-26T04:37:38.832Z,60
2016-08-26T04:38:37.440Z,60
2016-08-26T04:39:38.148Z,64
2016-08-26T04:40:38.151Z,72
2016-08-26T04:41:38.162Z,80
2016-08-26T04:42:37.468Z,84
2016-08-26T04:43:39.232Z,88
2016-08-26T04:44:38.898Z,92
2016-08-26T04:45:37.429Z,100
2016-08-26T04:46:38.222Z,108
2016-08-26T04:47:39.537Z,112
2016-08-26T04:48:37.512Z,116
2016-08-26T04:49:38.990Z,124
2016-08-26T04:50:37.531Z,132
2016-08-26T04:51:38.248Z,140
2016-08-26T04:52:36.850Z,148
2016-08-26T04:53:38.968Z,152
2016-08-26T04:54:38.270Z,160
2016-08-26T04:55:37.568Z,168
2016-08-26T04:56:39.776Z,180
2016-08-26T04:57:38.293Z,184
2016-08-26T04:58:39.044Z,196
2016-08-26T04:59:37.605Z,204
2016-08-26T05:00:37.611Z,212
2016-08-26T05:01:37.617Z,220
2016-08-26T05:02:39.054Z,228
2016-08-26T05:03:37.644Z,236
2016-08-26T05:04:39.061Z,244
2016-08-26T05:05:37.655Z,256
2016-08-26T05:06:38.366Z,276
2016-08-26T05:07:39.211Z,288
2016-08-26T05:08:39.101Z,304
2016-08-26T05:09:39.248Z,316
2016-08-26T05:10:38.412Z,332
2016-08-26T05:11:39.935Z,348
2016-08-26T05:12:38.469Z,356
2016-08-26T05:13:37.768Z,376
2016-08-26T05:14:37.737Z,404
2016-08-26T05:15:37.730Z,424
2016-08-26T05:16:39.181Z,444
2016-08-26T05:17:38.459Z,452
2016-08-26T05:18:38.523Z,456
2016-08-26T05:19:37.777Z,484
2016-08-26T05:20:39.695Z,596
2016-08-26T05:21:37.782Z,784
2016-08-26T05:22:40.282Z,948
2016-08-26T05:23:37.804Z,1164
2016-08-26T05:24:38.514Z,1092
2016-08-26T05:25:38.530Z,860
2016-08-26T05:26:38.539Z,832
2016-08-26T05:27:38.543Z,980
2016-08-26T05:28:38.550Z,1496
2016-08-26T05:29:38.562Z,1524
2016-08-26T05:30:38.570Z,1404
2016-08-26T05:31:39.423Z,1092
2016-08-26T05:32:38.588Z,896
2016-08-26T05:33:37.892Z,712
2016-08-26T05:34:37.904Z,720
2016-08-26T05:35:38.614Z,620
2016-08-26T05:36:38.622Z,596
2016-08-26T05:37:38.626Z,592
2016-08-26T05:38:38.650Z,596
2016-08-26T05:39:37.941Z,620
2016-08-26T05:40:39.359Z,608
2016-08-26T05:41:39.375Z,612
2016-08-26T05:42:39.183Z,620
2016-08-26T05:43:38.679Z,640
2016-08-26T05:44:38.692Z,728
2016-08-26T05:45:38.697Z,856
2016-08-26T05:46:38.709Z,800
2016-08-26T05:47:37.306Z,860
2016-08-26T05:48:38.025Z,788
2016-08-26T05:49:38.029Z,824
2016-08-26T05:50:39.451Z,1300
2016-08-26T05:51:39.456Z,1196
2016-08-26T05:52:38.760Z,944
2016-08-26T05:53:38.762Z,964
2016-08-26T05:54:39.479Z,796
2016-08-26T05:55:40.063Z,876
2016-08-26T05:56:39.502Z,1056
2016-08-26T05:57:39.252Z,1108
2016-08-26T05:58:38.106Z,856
2016-08-26T05:59:38.830Z,812
2016-08-26T06:00:38.123Z,848
2016-08-26T06:01:38.840Z,828
2016-08-26T06:02:38.851Z,1092
2016-08-26T06:03:39.569Z,1072
2016-08-26T06:04:38.315Z,848
2016-08-26T06:05:38.875Z,896
2016-08-26T06:06:38.879Z,976
2016-08-26T06:07:38.892Z,936
2016-08-26T06:08:38.898Z,916
2016-08-26T06:09:39.614Z,936
2016-08-26T06:10:38.211Z,948
2016-08-26T06:11:38.221Z,1024
2016-08-26T06:12:39.693Z,1052
2016-08-26T06:13:39.702Z,1004
2016-08-26T06:14:38.963Z,1008
2016-08-26T06:15:40.171Z,1040
2016-08-26T06:16:38.965Z,1080
2016-08-26T06:17:40.817Z,1088
2016-08-26T06:18:37.572Z,1112
2016-08-26T06:19:39.245Z,1196
2016-08-26T06:20:39.713Z,2308
2016-08-26T06:21:39.010Z,1620
2016-08-26T06:22:39.034Z,2592
2016-08-26T06:23:38.321Z,2920
2016-08-26T06:24:39.087Z,2120
2016-08-26T06:25:39.051Z,2408
2016-08-26T06:26:38.349Z,2248
2016-08-26T06:27:38.356Z,1924
2016-08-26T06:28:40.390Z,2140
2016-08-26T06:29:37.682Z,2240
2016-08-26T06:30:40.017Z,3684
2016-08-26T06:31:39.807Z,1808
2016-08-26T06:32:39.813Z,3380
2016-08-26T06:33:37.744Z,3008
2016-08-26T06:34:39.128Z,3316
2016-08-26T06:35:39.872Z,3616
2016-08-26T06:36:38.444Z,3336
2016-08-26T06:37:41.213Z,4524
2016-08-26T06:38:39.162Z,6160
2016-08-26T06:39:40.025Z,9132
2016-08-26T06:40:39.890Z,11120
2016-08-26T06:41:39.934Z,12004
2016-08-26T06:42:38.498Z,12240
2016-08-26T06:43:38.509Z,13184
2016-08-26T06:44:39.968Z,13920
2016-08-26T06:45:39.235Z,11388
2016-08-26T06:46:39.767Z,10864
2016-08-26T06:47:39.273Z,6604
2016-08-26T06:48:40.018Z,12028
2016-08-26T06:49:39.283Z,12228
2016-08-26T06:50:40.000Z,11492
2016-08-26T06:51:39.359Z,13760
2016-08-26T06:52:39.315Z,14144
2016-08-26T06:53:40.184Z,14016
2016-08-26T06:54:40.045Z,10360
2016-08-26T06:55:40.117Z,11096
2016-08-26T06:56:38.026Z,8728
2016-08-26T06:57:39.317Z,6260
2016-08-26T06:58:40.216Z,5200
2016-08-26T06:59:37.981Z,6988
2016-08-26T07:00:38.783Z,7744
2016-08-26T09:53:02.729Z,1624
2016-08-26T09:54:02.566Z,1620
2016-08-26T09:55:02.853Z,1616
2016-08-26T09:56:02.201Z,1588
2016-08-26T09:57:01.985Z,1580
2016-08-26T09:58:01.284Z,1564
2016-08-26T09:59:02.713Z,1560
2016-08-26T10:00:00.591Z,1532
2016-08-26T10:01:02.020Z,1568
2016-08-26T10:02:02.421Z,1560
2016-08-26T10:03:02.029Z,1556
2016-08-26T10:04:02.037Z,1532
2016-08-26T10:05:02.186Z,1536
2016-08-26T10:06:02.236Z,1540
2016-08-26T10:07:02.060Z,1516
2016-08-26T10:08:02.066Z,1536
2016-08-26T10:09:01.369Z,1548
2016-08-26T10:10:02.092Z,1508
2016-08-26T10:11:02.392Z,1472
2016-08-26T10:12:02.276Z,1196
2016-08-26T10:13:02.830Z,1348
2016-08-26T10:14:00.699Z,1272
2016-08-26T10:15:02.127Z,1308
2016-08-26T10:16:02.343Z,1220
2016-08-26T10:17:01.225Z,1084
2016-08-26T10:18:02.152Z,956
2016-08-26T10:19:02.161Z,936
2016-08-26T10:20:02.217Z,988
2016-08-26T10:21:02.935Z,1028
2016-08-26T10:22:02.188Z,1324
2016-08-26T10:23:02.193Z,1512
2016-08-26T10:24:03.916Z,1492
2016-08-26T10:25:02.515Z,1568
2016-08-26T10:26:02.986Z,1620
2016-08-26T10:27:00.817Z,1620
2016-08-26T10:28:01.531Z,1632
2016-08-26T10:29:02.956Z,1312
2016-08-26T10:30:02.258Z,1024
2016-08-26T10:31:00.854Z,1388
2016-08-26T10:32:01.573Z,1552
2016-08-26T10:33:02.736Z,1336
2016-08-26T10:34:02.292Z,1524
2016-08-26T10:35:03.001Z,1520
2016-08-26T10:36:01.604Z,1512
2016-08-26T10:37:01.613Z,1508
2016-08-26T10:38:03.032Z,1520
2016-08-26T10:39:03.065Z,1512
2016-08-26T10:40:03.049Z,1528
2016-08-26T10:41:01.694Z,1540
2016-08-26T10:42:03.071Z,1540
2016-08-26T10:43:01.777Z,1536
2016-08-26T10:44:05.179Z,1520
2016-08-26T10:45:01.782Z,1508
2016-08-26T10:46:02.105Z,1512
2016-08-26T10:47:02.418Z,1520
2016-08-26T10:48:02.414Z,1556
2016-08-26T10:49:01.016Z,1476
2016-08-26T10:50:02.430Z,1480
2016-08-26T10:51:03.143Z,1460
2016-08-26T10:52:01.738Z,1456
2016-08-26T10:53:01.786Z,1404
2016-08-26T10:54:02.574Z,1396
2016-08-26T10:55:03.430Z,1348
2016-08-26T10:56:03.190Z,1368
2016-08-26T10:57:03.726Z,1384
2016-08-26T10:58:02.499Z,1432
2016-08-26T10:59:01.143Z,1424
2016-08-26T11:00:03.228Z,1396
2016-08-26T11:01:03.226Z,1424
2016-08-26T11:02:02.534Z,1444
2016-08-26T11:03:02.539Z,1436
2016-08-26T11:04:01.840Z,1444
2016-08-26T11:05:03.269Z,1400
2016-08-26T11:06:02.564Z,1408
2016-08-26T11:07:01.157Z,1388
2016-08-26T11:08:04.114Z,1372
2016-08-26T11:09:01.231Z,1368
2016-08-26T11:10:03.151Z,1352
2016-08-26T11:11:03.322Z,1408
2016-08-26T11:12:03.320Z,1412
2016-08-26T11:13:02.630Z,1400
2016-08-26T11:14:01.927Z,1376
2016-08-26T11:15:02.638Z,1392
2016-08-26T11:16:01.947Z,1404
2016-08-26T11:17:01.509Z,1432
2016-08-26T11:18:03.370Z,1316
2016-08-26T11:19:04.581Z,1424
2016-08-26T11:20:01.268Z,1436
2016-08-26T11:21:02.789Z,1408
2016-08-26T11:22:01.991Z,1416
2016-08-26T11:23:02.001Z,1408
2016-08-26T11:24:03.421Z,1408
2016-08-26T11:26:16.310Z,1396
2016-08-26T11:27:02.130Z,1380
2016-08-26T11:28:04.566Z,1360
2016-08-26T11:29:02.758Z,1364
2016-08-26T11:30:04.173Z,1396
2016-08-26T11:31:01.361Z,1396
2016-08-26T11:32:02.422Z,1376
2016-08-26T11:33:01.377Z,1372
2016-08-26T11:34:03.505Z,1368
2016-08-26T11:35:02.150Z,1364
2016-08-26T11:36:03.518Z,1360
2016-08-26T11:37:02.825Z,1348
2016-08-26T11:38:02.125Z,1352
2016-08-26T11:39:04.600Z,1340
2016-08-26T11:40:02.142Z,1328
2016-08-26T11:41:03.500Z,1308
2016-08-26T11:42:02.863Z,1284
2016-08-26T11:43:02.923Z,1268
2016-08-26T11:44:02.173Z,1264
2016-08-26T11:45:02.893Z,1252
2016-08-26T11:46:03.602Z,1248
2016-08-26T11:47:02.901Z,1220
2016-08-26T11:48:03.616Z,1220
2016-08-26T11:49:02.206Z,996
2016-08-26T11:50:04.091Z,1172
2016-08-26T11:51:02.936Z,1180
2016-08-26T11:52:02.237Z,1156
2016-08-26T11:53:02.246Z,1160
2016-08-26T11:54:04.569Z,1148
2016-08-26T11:55:02.415Z,1148
2016-08-26T11:56:02.273Z,1160
2016-08-26T11:57:02.997Z,1144
2016-08-26T11:58:03.194Z,1092
2016-08-26T11:59:01.593Z,1108
2016-08-26T12:00:02.308Z,1124
2016-08-26T12:01:03.021Z,1116
2016-08-26T12:02:03.742Z,1100
2016-08-26T12:03:02.333Z,1112
2016-08-26T12:04:02.341Z,1096
2016-08-26T12:05:03.256Z,1104
2016-08-26T12:06:01.654Z,1076
2016-08-26T12:07:02.369Z,1076
2016-08-26T12:08:01.719Z,1056
2016-08-26T12:09:02.388Z,1036
2016-08-26T12:10:02.464Z,992
2016-08-26T12:11:03.821Z,992
2016-08-26T12:12:03.120Z,972
2016-08-26T12:13:04.179Z,976
2016-08-26T12:14:04.801Z,956
2016-08-26T12:15:03.247Z,988
2016-08-26T12:16:02.917Z,980
2016-08-26T12:17:03.167Z,976
2016-08-26T12:18:03.173Z,952
2016-08-26T12:19:02.473Z,940
2016-08-26T12:20:03.192Z,896
2016-08-26T12:21:02.495Z,928
2016-08-26T12:22:02.503Z,920
2016-08-26T12:23:03.469Z,920
2016-08-26T12:24:03.225Z,916
2016-08-26T12:25:04.020Z,916
2016-08-26T12:26:03.247Z,924
2016-08-26T12:27:02.843Z,912
2016-08-26T12:28:02.565Z,908
2016-08-26T12:29:03.273Z,904
2016-08-26T12:30:03.286Z,896
2016-08-26T12:31:04.000Z,884
2016-08-26T12:32:03.302Z,876
2016-08-26T12:33:01.904Z,868
2016-08-26T12:34:04.698Z,872
2016-08-26T12:35:02.672Z,860
2016-08-26T12:36:03.731Z,856
2016-08-26T12:37:03.349Z,852
2016-08-26T12:38:04.061Z,832
2016-08-26T12:39:02.664Z,828
2016-08-26T12:40:03.380Z,824
2016-08-26T12:41:04.089Z,828
2016-08-26T12:42:02.692Z,820
2016-08-26T12:43:02.691Z,804
2016-08-26T12:44:03.464Z,808
2016-08-26T12:45:04.568Z,800
2016-08-26T12:46:03.429Z,788
2016-08-26T12:47:04.088Z,776
2016-08-26T12:48:02.737Z,780
2016-08-26T12:49:03.002Z,772
2016-08-26T12:50:02.759Z,772
2016-08-26T12:51:04.228Z,768
2016-08-26T12:52:02.775Z,776
2016-08-26T12:53:02.081Z,772
2016-08-26T12:54:02.790Z,784
2016-08-26T12:55:03.508Z,784
2016-08-26T12:56:03.609Z,768
2016-08-26T12:57:03.521Z,764
2016-08-26T12:58:03.535Z,748
2016-08-26T12:59:04.250Z,732
2016-08-26T13:00:03.549Z,748
2016-08-26T13:01:03.562Z,748
2016-08-26T13:02:03.581Z,748
2016-08-26T13:03:02.870Z,736
2016-08-26T13:04:02.881Z,744
2016-08-26T13:05:04.354Z,744
2016-08-26T13:06:03.610Z,736
2016-08-26T13:07:03.455Z,728
2016-08-26T13:08:03.622Z,728
2016-08-26T13:09:03.081Z,728
2016-08-26T13:10:02.943Z,720
2016-08-26T13:11:02.947Z,740
2016-08-26T13:12:03.655Z,728
2016-08-26T13:13:03.669Z,728
2016-08-26T13:14:03.681Z,724
2016-08-26T13:15:03.684Z,708
2016-08-26T13:16:03.743Z,716
2016-08-26T13:17:03.702Z,716
2016-08-26T13:18:04.466Z,716
2016-08-26T13:19:04.428Z,692
2016-08-26T13:20:04.778Z,696
2016-08-26T13:21:03.737Z,692
2016-08-26T13:22:04.351Z,692
2016-08-26T13:23:04.464Z,688
2016-08-26T13:24:04.471Z,692
2016-08-26T13:25:03.824Z,716
2016-08-26T13:26:05.546Z,696
2016-08-26T13:27:03.806Z,688
2016-08-26T13:28:03.799Z,684
2016-08-26T13:29:03.809Z,708
2016-08-26T13:30:03.820Z,692
2016-08-26T13:31:04.948Z,704
2016-08-26T13:32:03.839Z,724
2016-08-26T13:33:04.551Z,704
2016-08-26T13:34:03.155Z,708
2016-08-26T13:35:03.154Z,700
2016-08-26T13:36:02.518Z,716
2016-08-26T13:37:03.882Z,708
2016-08-26T13:38:03.281Z,700
2016-08-26T13:39:04.605Z,720
2016-08-26T13:40:03.247Z,716
2016-08-26T13:41:03.922Z,712
2016-08-26T13:42:03.929Z,716
2016-08-26T13:43:02.569Z,712
2016-08-26T13:44:05.564Z,708
2016-08-26T13:45:03.264Z,704
2016-08-26T13:46:03.960Z,696
2016-08-26T13:47:03.259Z,684
2016-08-26T13:48:03.974Z,680
2016-08-26T13:49:03.994Z,676
2016-08-26T13:50:03.294Z,672
2016-08-26T13:51:04.008Z,676
2016-08-26T13:52:04.723Z,704
2016-08-26T13:53:04.742Z,716
2016-08-26T13:54:04.744Z,720
2016-08-26T13:55:03.537Z,712
2016-08-26T13:56:04.761Z,684
2016-08-26T13:57:02.645Z,672
2016-08-26T13:58:02.653Z,692
2016-08-26T13:59:03.371Z,708
2016-08-26T14:00:04.145Z,708
2016-08-26T14:01:02.685Z,724
2016-08-26T14:02:03.399Z,740
2016-08-26T14:03:04.112Z,736
2016-08-26T14:04:04.669Z,720
2016-08-26T14:05:03.422Z,732
2016-08-26T14:06:03.480Z,724
2016-08-26T14:07:04.147Z,708
2016-08-26T14:08:04.863Z,684
2016-08-26T14:09:03.453Z,664
2016-08-26T14:10:04.172Z,668
2016-08-26T14:11:02.766Z,616
2016-08-26T14:12:04.891Z,656
2016-08-26T14:13:04.913Z,672
2016-08-26T14:14:04.221Z,688
2016-08-26T14:15:04.364Z,692
2016-08-26T14:16:03.513Z,668
2016-08-26T14:17:04.290Z,664
2016-08-26T14:18:03.528Z,672
2016-08-26T14:19:03.538Z,688
2016-08-26T14:20:04.255Z,708
2016-08-26T14:21:03.553Z,724
2016-08-26T14:22:04.274Z,724
2016-08-26T14:23:03.575Z,704
2016-08-26T14:24:02.871Z,672
2016-08-26T14:25:04.393Z,652
2016-08-26T14:26:04.308Z,648
2016-08-26T14:27:05.029Z,628
2016-08-26T14:28:03.621Z,648
2016-08-26T14:29:04.330Z,664
2016-08-26T14:30:04.497Z,680
2016-08-26T14:31:04.345Z,676
2016-08-26T14:32:04.361Z,664
2016-08-26T14:33:03.662Z,660
2016-08-26T14:34:03.676Z,660
2016-08-26T14:35:05.144Z,660
2016-08-26T14:36:03.746Z,652
2016-08-26T14:37:04.403Z,644
2016-08-26T14:38:03.854Z,648
2016-08-26T14:39:05.360Z,644
2016-08-26T14:40:04.447Z,648
2016-08-26T14:41:04.449Z,724
2016-08-26T14:42:03.737Z,736
2016-08-26T14:43:03.797Z,752
2016-08-26T14:44:03.762Z,768
2016-08-26T14:45:05.178Z,776
2016-08-26T14:46:05.187Z,780
2016-08-26T14:47:04.498Z,796
2016-08-26T14:48:05.202Z,800
2016-08-26T14:49:04.511Z,796
2016-08-26T14:50:05.540Z,796
2016-08-26T14:51:04.523Z,804
2016-08-26T14:52:04.533Z,816
2016-08-26T14:53:04.552Z,820
2016-08-26T14:54:05.254Z,820
2016-08-26T14:55:05.323Z,808
2016-08-26T14:56:05.372Z,812
2016-08-26T14:57:03.870Z,808
2016-08-26T14:58:04.632Z,804
2016-08-26T14:59:04.594Z,792
2016-08-26T15:00:04.607Z,788
2016-08-26T15:01:06.107Z,784
2016-08-26T15:02:05.329Z,776
2016-08-26T15:03:05.342Z,764
2016-08-26T15:04:04.644Z,744
2016-08-26T15:05:05.410Z,716
2016-08-26T15:06:03.948Z,680
2016-08-26T15:07:03.957Z,676
2016-08-26T15:08:03.962Z,660
2016-08-26T15:09:05.454Z,648
2016-08-26T15:10:03.981Z,624
2016-08-26T15:11:04.695Z,604
2016-08-26T15:12:05.857Z,576
2016-08-26T15:13:05.422Z,564
2016-08-26T15:14:04.214Z,568
2016-08-26T15:15:04.736Z,556
2016-08-26T15:16:04.036Z,552
2016-08-26T15:17:04.745Z,556
2016-08-26T15:18:05.465Z,552
2016-08-26T15:19:04.060Z,556
2016-08-26T15:20:05.486Z,560
2016-08-26T15:21:04.781Z,568
2016-08-26T15:22:04.792Z,564
2016-08-26T15:23:05.797Z,564
2016-08-26T15:24:04.813Z,568
2016-08-26T15:25:04.111Z,580
2016-08-26T15:26:04.118Z,588
2016-08-26T15:27:05.542Z,612
2016-08-26T15:28:03.431Z,624
2016-08-26T15:29:04.145Z,652
2016-08-26T15:30:04.862Z,648
2016-08-26T15:31:05.577Z,648
2016-08-26T15:32:06.205Z,668
2016-08-26T15:33:03.472Z,676
2016-08-26T15:34:05.748Z,668
2016-08-26T15:35:05.619Z,660
2016-08-26T15:36:05.672Z,656
2016-08-26T15:37:04.972Z,636
2016-08-26T15:38:04.933Z,620
2016-08-26T15:39:04.943Z,608
2016-08-26T15:40:04.964Z,612
2016-08-26T15:41:04.299Z,600
2016-08-26T15:42:04.268Z,580
2016-08-26T15:43:07.758Z,572
2016-08-26T15:44:04.981Z,556
2016-08-26T15:45:05.195Z,544
2016-08-26T15:46:04.352Z,532
2016-08-26T15:47:05.715Z,532
2016-08-26T15:48:04.319Z,528
2016-08-26T15:49:04.322Z,528
2016-08-26T15:50:05.041Z,520
2016-08-26T15:51:05.767Z,520
2016-08-26T15:52:05.768Z,520
2016-08-26T15:53:05.064Z,524
2016-08-26T15:54:05.515Z,524
2016-08-26T15:55:04.379Z,524
2016-08-26T15:56:04.386Z,520
2016-08-26T15:57:05.812Z,512
2016-08-26T15:58:04.409Z,512
2016-08-26T15:59:04.414Z,512
2016-08-26T16:00:04.419Z,512
2016-08-26T16:01:04.431Z,508
2016-08-26T16:02:05.145Z,508
2016-08-26T16:03:05.860Z,508
2016-08-26T16:04:05.172Z,504
2016-08-26T16:05:06.171Z,500
2016-08-26T16:06:05.184Z,500
2016-08-26T16:07:07.270Z,492
2016-08-26T16:08:05.198Z,496
2016-08-26T16:09:05.919Z,496
2016-08-26T16:10:05.221Z,484
2016-08-26T16:11:05.222Z,484
2016-08-26T16:12:05.238Z,484
2016-08-26T16:13:04.548Z,480
2016-08-26T16:14:04.551Z,480
2016-08-26T16:15:05.979Z,476
2016-08-26T16:16:05.480Z,472
2016-08-26T16:17:04.570Z,464
2016-08-26T16:18:07.273Z,448
2016-08-26T16:19:05.298Z,424
2016-08-26T16:20:04.666Z,404
2016-08-26T16:21:04.609Z,396
2016-08-26T16:22:05.335Z,400
2016-08-26T16:23:06.042Z,408
2016-08-26T16:24:05.342Z,408
2016-08-26T16:25:04.798Z,400
2016-08-26T16:26:06.075Z,388
2016-08-26T16:27:05.372Z,376
2016-08-26T16:28:06.083Z,364
2016-08-26T16:29:04.733Z,364
2016-08-26T16:30:03.985Z,368
2016-08-26T16:31:06.166Z,376
2016-08-26T16:32:04.717Z,384
2016-08-26T16:33:05.418Z,388
2016-08-26T16:34:04.722Z,388
2016-08-26T16:35:05.439Z,392
2016-08-26T16:36:06.154Z,396
2016-08-26T16:37:06.165Z,396
2016-08-26T16:38:05.154Z,400
2016-08-26T16:39:04.060Z,396
2016-08-26T16:40:06.760Z,388
2016-08-26T16:41:04.787Z,384
2016-08-26T16:42:04.803Z,368
2016-08-26T16:43:04.166Z,356
2016-08-26T16:44:05.518Z,340
2016-08-26T16:45:04.868Z,320
2016-08-26T16:46:05.547Z,304
2016-08-26T16:47:04.132Z,296
2016-08-26T16:48:06.260Z,288
2016-08-26T16:49:05.562Z,280
2016-08-26T16:50:04.866Z,276